createdAt,value
2022-11-09T00:01:44.359Z,77.80
2022-11-09T00:04:13.529Z,77.00
2022-11-09T00:06:41.383Z,77.00
2022-11-09T00:09:09.642Z,77.00
2022-11-09T00:11:38.648Z,77.00
2022-11-09T00:14:06.763Z,77.10
2022-11-09T00:16:34.715Z,77.00
2022-11-09T00:19:02.441Z,77.10
2022-11-09T00:21:31.532Z,77.10
2022-11-09T00:23:59.263Z,77.00
2022-11-09T00:26:27.743Z,77.00
2022-11-09T00:28:55.543Z,77.00
2022-11-09T00:31:24.768Z,77.00
2022-11-09T00:33:53.809Z,77.10
2022-11-09T00:36:22.558Z,77.10
2022-11-09T00:38:53.234Z,77.00
2022-11-09T00:41:21.399Z,77.00
2022-11-09T00:43:50.149Z,77.00
2022-11-09T00:46:18.504Z,77.00
2022-11-09T00:48:47.028Z,77.00
2022-11-09T00:51:15.403Z,77.00
2022-11-09T00:53:43.588Z,76.90
2022-11-09T00:56:13.702Z,76.90
2022-11-09T00:58:42.063Z,77.00
2022-11-09T01:01:13.941Z,76.90
2022-11-09T01:03:44.297Z,76.90
2022-11-09T01:06:16.796Z,76.90
2022-11-09T01:08:45.151Z,76.90
2022-11-09T01:11:17.569Z,76.90
2022-11-09T01:13:45.883Z,76.90
2022-11-09T01:16:15.885Z,76.90
2022-11-09T01:18:43.857Z,76.90
2022-11-09T01:21:14.283Z,76.90
2022-11-09T01:23:43.675Z,76.90
2022-11-09T01:26:16.587Z,76.90
2022-11-09T01:28:44.996Z,76.90
2022-11-09T01:31:15.257Z,76.90
2022-11-09T01:33:43.491Z,76.90
2022-11-09T01:36:13.201Z,76.90
2022-11-09T01:38:41.204Z,76.90
2022-11-09T01:41:13.379Z,76.90
2022-11-09T01:43:42.701Z,76.90
2022-11-09T01:46:17.838Z,76.90
2022-11-09T01:48:49.412Z,76.90
2022-11-09T01:51:26.371Z,76.90
2022-11-09T01:53:59.692Z,76.90
2022-11-09T01:56:28.978Z,76.90
2022-11-09T01:59:01.606Z,76.80
2022-11-09T02:01:31.521Z,76.80
2022-11-09T02:04:05.557Z,76.80
2022-11-09T02:06:34.063Z,76.90
2022-11-09T02:09:08.303Z,76.80
2022-11-09T02:11:37.583Z,76.80
2022-11-09T02:14:07.836Z,76.80
2022-11-09T02:16:36.628Z,76.90
2022-11-09T02:19:04.912Z,76.80
2022-11-09T02:21:34.394Z,76.80
2022-11-09T02:24:02.459Z,76.80
2022-11-09T02:26:33.142Z,76.80
2022-11-09T02:29:03.936Z,76.80
2022-11-09T02:31:37.049Z,76.80
2022-11-09T02:34:08.528Z,76.80
2022-11-09T02:36:37.739Z,76.90
2022-11-09T02:39:08.829Z,76.80
2022-11-09T02:41:41.156Z,76.90
2022-11-09T02:44:09.060Z,76.90
2022-11-09T02:46:38.020Z,76.90
2022-11-09T02:49:06.328Z,76.90
2022-11-09T02:51:38.304Z,76.80
2022-11-09T02:54:06.137Z,76.90
2022-11-09T02:56:34.043Z,76.90
2022-11-09T02:59:03.314Z,76.90
2022-11-09T03:01:32.821Z,76.80
2022-11-09T03:04:00.672Z,76.80
2022-11-09T03:06:35.116Z,76.80
2022-11-09T03:09:10.696Z,76.80
2022-11-09T03:11:39.800Z,76.90
2022-11-09T03:14:09.696Z,76.90
2022-11-09T03:16:39.731Z,76.80
2022-11-09T03:19:07.803Z,76.80
2022-11-09T03:21:36.090Z,77.10
2022-11-09T03:24:03.930Z,76.80
2022-11-09T03:26:33.732Z,77.60
2022-11-09T03:29:01.549Z,76.80
2022-11-09T03:31:30.223Z,76.90
2022-11-09T03:34:00.834Z,76.80
2022-11-09T03:36:28.603Z,76.90
2022-11-09T03:38:56.370Z,76.90
2022-11-09T03:41:24.236Z,76.90
2022-11-09T03:43:53.890Z,76.90
2022-11-09T03:46:21.675Z,76.90
2022-11-09T03:48:49.474Z,76.90
2022-11-09T03:51:17.243Z,76.90
2022-11-09T03:53:45.017Z,76.90
2022-11-09T03:56:12.737Z,76.90
2022-11-09T03:58:40.466Z,76.90
2022-11-09T04:01:10.861Z,76.90
2022-11-09T04:03:38.810Z,76.90
2022-11-09T04:06:06.628Z,76.90
2022-11-09T04:08:34.395Z,76.90
2022-11-09T04:11:02.152Z,76.90
2022-11-09T04:13:29.898Z,76.90
2022-11-09T04:15:57.656Z,76.90
2022-11-09T04:18:26.707Z,76.90
2022-11-09T04:20:54.531Z,76.90
2022-11-09T04:23:22.621Z,76.90
2022-11-09T04:25:50.581Z,76.90
2022-11-09T04:28:21.007Z,76.90
2022-11-09T04:30:48.804Z,76.90
2022-11-09T04:33:16.687Z,76.90
2022-11-09T04:35:45.944Z,76.90
2022-11-09T04:38:14.761Z,76.90
2022-11-09T04:40:42.627Z,76.90
2022-11-09T04:43:13.128Z,76.90
2022-11-09T04:45:41.216Z,76.90
2022-11-09T04:48:10.745Z,76.90
2022-11-09T04:50:38.656Z,76.90
2022-11-09T04:53:09.760Z,76.90
2022-11-09T04:55:38.004Z,76.90
2022-11-09T04:58:06.236Z,76.90
2022-11-09T05:00:34.814Z,76.90
2022-11-09T05:03:03.588Z,76.90
2022-11-09T05:05:31.679Z,76.90
2022-11-09T05:07:59.416Z,76.90
2022-11-09T05:10:28.516Z,76.90
2022-11-09T05:12:59.868Z,76.90
2022-11-09T05:15:27.761Z,76.90
2022-11-09T05:17:55.734Z,76.90
2022-11-09T05:20:24.369Z,76.90
2022-11-09T05:23:09.691Z,76.90
2022-11-09T05:25:38.753Z,76.90
2022-11-09T05:28:06.849Z,76.90
2022-11-09T05:30:34.581Z,76.90
2022-11-09T05:33:02.341Z,76.90
2022-11-09T05:35:30.116Z,76.90
2022-11-09T05:37:57.834Z,76.80
2022-11-09T05:40:25.603Z,76.90
2022-11-09T05:42:55.996Z,76.90
2022-11-09T05:45:42.202Z,76.70
2022-11-09T05:48:11.245Z,76.80
2022-11-09T05:50:39.323Z,76.80
2022-11-09T05:53:36.258Z,76.80
2022-11-09T05:56:05.477Z,76.90
2022-11-09T05:58:36.324Z,76.70
2022-11-09T06:01:05.831Z,76.90
2022-11-09T06:03:33.853Z,76.80
2022-11-09T06:06:08.062Z,76.80
2022-11-09T06:08:36.731Z,76.80
2022-11-09T06:11:06.459Z,76.80
2022-11-09T06:13:36.320Z,76.70
2022-11-09T06:16:06.393Z,76.80
2022-11-09T06:18:36.106Z,76.80
2022-11-09T06:21:06.369Z,77.10
2022-11-09T06:23:36.350Z,77.60
2022-11-09T06:26:07.214Z,77.80
2022-11-09T06:28:36.655Z,78.00
2022-11-09T06:31:06.851Z,78.30
2022-11-09T06:33:36.676Z,78.40
2022-11-09T06:36:05.484Z,79.30
2022-11-09T06:38:33.261Z,78.60
2022-11-09T06:41:01.412Z,78.60
2022-11-09T06:43:29.671Z,78.70
2022-11-09T06:46:00.763Z,78.70
2022-11-09T06:48:28.856Z,78.80
2022-11-09T06:51:00.999Z,78.80
2022-11-09T06:53:29.787Z,78.90
2022-11-09T06:55:59.083Z,78.90
2022-11-09T06:58:26.836Z,79.00
2022-11-09T07:00:54.725Z,78.90
2022-11-09T07:03:24.781Z,78.90
2022-11-09T07:05:53.717Z,79.00
2022-11-09T07:08:21.639Z,78.90
2022-11-09T07:10:49.740Z,78.90
2022-11-09T07:13:17.670Z,78.80
2022-11-09T07:15:45.605Z,79.70
2022-11-09T07:18:13.567Z,78.80
2022-11-09T07:20:42.709Z,78.80
2022-11-09T07:23:10.440Z,78.80
2022-11-09T07:25:38.196Z,78.70
2022-11-09T07:28:07.443Z,78.80
2022-11-09T07:30:36.475Z,78.70
2022-11-09T07:33:09.637Z,78.70
2022-11-09T07:35:38.164Z,79.50
2022-11-09T07:38:07.600Z,78.60
2022-11-09T07:40:35.924Z,78.60
2022-11-09T07:43:05.574Z,78.60
2022-11-09T07:45:35.385Z,78.50
2022-11-09T07:48:04.797Z,78.50
2022-11-09T07:50:34.104Z,78.50
2022-11-09T07:53:03.079Z,78.40
2022-11-09T07:55:32.261Z,78.40
2022-11-09T07:58:01.321Z,78.40
2022-11-09T08:00:31.572Z,78.30
2022-11-09T08:02:59.595Z,78.30
2022-11-09T08:05:29.966Z,78.20
2022-11-09T08:07:58.185Z,78.20
2022-11-09T08:10:26.850Z,78.20
2022-11-09T08:12:57.030Z,78.10
2022-11-09T08:15:25.477Z,78.10
2022-11-09T08:17:53.363Z,78.10
2022-11-09T08:20:21.568Z,78.10
2022-11-09T08:22:49.413Z,78.10
2022-11-09T08:25:17.340Z,78.10
2022-11-09T08:27:45.105Z,78.10
2022-11-09T08:30:16.223Z,78.10
2022-11-09T08:32:45.416Z,78.10
2022-11-09T08:35:17.530Z,78.10
2022-11-09T08:37:46.716Z,78.10
2022-11-09T08:40:16.255Z,78.00
2022-11-09T08:42:44.292Z,78.10
2022-11-09T08:45:12.312Z,78.10
2022-11-09T08:47:41.653Z,78.00
2022-11-09T08:50:11.140Z,78.00
2022-11-09T08:52:39.354Z,78.00
2022-11-09T08:55:07.809Z,78.00
2022-11-09T08:57:35.547Z,78.10
2022-11-09T09:00:03.584Z,78.00
2022-11-09T09:02:31.835Z,78.00
2022-11-09T09:05:01.084Z,78.00
2022-11-09T09:07:28.819Z,78.00
2022-11-09T09:09:56.519Z,78.00
2022-11-09T09:12:24.240Z,78.00
2022-11-09T09:14:51.948Z,78.00
2022-11-09T09:17:19.718Z,78.00
2022-11-09T09:19:50.012Z,78.00
2022-11-09T09:22:19.699Z,78.00
2022-11-09T09:24:47.433Z,77.90
2022-11-09T09:27:15.131Z,78.00
2022-11-09T09:29:42.858Z,77.90
2022-11-09T09:32:10.600Z,78.00
2022-11-09T09:34:38.344Z,78.00
2022-11-09T09:37:06.096Z,78.00
2022-11-09T09:39:35.192Z,78.00
2022-11-09T09:42:06.726Z,78.00
2022-11-09T09:44:40.377Z,78.00
2022-11-09T09:47:13.512Z,78.00
2022-11-09T09:49:44.837Z,78.00
2022-11-09T09:52:19.281Z,78.00
2022-11-09T09:54:54.972Z,78.00
2022-11-09T09:57:24.413Z,78.00
2022-11-09T09:59:54.757Z,78.00
2022-11-09T10:02:25.288Z,78.00
2022-11-09T10:04:55.119Z,78.00
2022-11-09T10:07:27.631Z,78.00
2022-11-09T10:10:15.685Z,77.90
2022-11-09T10:13:05.164Z,77.90
2022-11-09T10:15:39.389Z,77.90
2022-11-09T10:18:21.395Z,77.90
2022-11-09T10:21:08.429Z,77.90
2022-11-09T10:23:49.344Z,78.00
2022-11-09T10:26:24.356Z,78.00
2022-11-09T10:31:47.216Z,78.10
2022-11-09T10:34:19.555Z,78.10
2022-11-09T10:36:54.745Z,78.10
2022-11-09T10:39:25.747Z,78.20
2022-11-09T10:42:13.662Z,78.20
2022-11-09T10:45:07.595Z,78.20
2022-11-09T10:47:53.853Z,78.20
2022-11-09T10:50:41.953Z,78.20
2022-11-09T10:53:29.963Z,78.30
2022-11-09T10:56:21.109Z,78.40
2022-11-09T10:59:36.002Z,78.50
2022-11-09T11:02:41.623Z,78.70
2022-11-09T11:05:35.225Z,78.90
2022-11-09T11:08:28.420Z,79.20
2022-11-09T11:11:33.780Z,79.30
2022-11-09T11:14:28.252Z,79.70
2022-11-09T11:17:28.275Z,80.00
2022-11-09T11:20:29.768Z,80.30
2022-11-09T11:23:18.649Z,80.30
2022-11-09T11:26:27.558Z,80.40
2022-11-09T11:29:32.311Z,80.30
2022-11-09T11:32:20.504Z,80.30
2022-11-09T11:35:15.285Z,80.10
2022-11-09T11:38:15.958Z,80.00
2022-11-09T11:41:11.123Z,79.90
2022-11-09T11:44:04.151Z,79.90
2022-11-09T11:46:59.893Z,79.90
2022-11-09T11:50:04.928Z,79.90
2022-11-09T11:53:18.240Z,79.90
2022-11-09T11:56:22.087Z,79.90
2022-11-09T11:59:44.506Z,79.80
2022-11-09T12:03:30.713Z,79.70
2022-11-09T12:06:44.155Z,79.60
2022-11-09T12:09:46.171Z,79.50
2022-11-09T12:12:41.926Z,79.40
2022-11-09T12:15:50.451Z,79.40
2022-11-09T12:18:47.497Z,79.40
2022-11-09T12:21:40.048Z,79.30
2022-11-09T12:24:34.985Z,79.30
2022-11-09T12:27:41.278Z,79.30
2022-11-09T12:30:39.240Z,79.30
2022-11-09T12:33:36.394Z,79.20
2022-11-09T12:36:30.898Z,79.20
2022-11-09T12:39:23.005Z,79.10
2022-11-09T12:42:16.516Z,79.10
2022-11-09T12:45:07.800Z,79.30
2022-11-09T12:47:55.832Z,79.20
2022-11-09T12:50:43.090Z,79.30
2022-11-09T12:53:33.298Z,79.30
2022-11-09T12:56:24.110Z,79.30
2022-11-09T12:59:35.687Z,79.10
2022-11-09T13:02:28.892Z,79.10
2022-11-09T13:05:31.066Z,79.10
2022-11-09T13:08:21.637Z,79.30
2022-11-09T13:11:20.348Z,79.40
2022-11-09T13:14:35.835Z,79.70
2022-11-09T13:17:59.377Z,80.00
2022-11-09T13:20:56.674Z,80.30
2022-11-09T13:24:03.637Z,80.30
2022-11-09T13:26:57.743Z,80.40
2022-11-09T13:29:55.316Z,80.40
2022-11-09T13:33:02.582Z,80.40
2022-11-09T13:36:15.736Z,80.40
2022-11-09T13:39:38.938Z,80.40
2022-11-09T13:42:33.449Z,80.30
2022-11-09T13:45:29.005Z,80.30
2022-11-09T13:48:39.158Z,80.20
2022-11-09T13:51:48.187Z,81.00
2022-11-09T13:54:35.415Z,80.10
2022-11-09T13:57:23.754Z,80.10
2022-11-09T14:00:18.731Z,80.10
2022-11-09T14:03:18.151Z,80.10
2022-11-09T14:06:04.652Z,80.10
2022-11-09T14:08:52.537Z,80.10
2022-11-09T14:11:59.857Z,80.30
2022-11-09T14:15:02.470Z,81.00
2022-11-09T14:17:58.118Z,80.10
2022-11-09T14:20:54.839Z,80.10
2022-11-09T14:23:41.375Z,80.10
2022-11-09T14:26:28.999Z,80.10
2022-11-09T14:29:22.807Z,80.00
2022-11-09T14:32:24.264Z,80.10
2022-11-09T14:35:22.224Z,80.00
2022-11-09T14:38:18.683Z,79.90
2022-11-09T14:41:05.226Z,79.80
2022-11-09T14:43:55.004Z,79.90
2022-11-09T14:46:41.492Z,79.80
2022-11-09T14:49:29.749Z,79.70
2022-11-09T14:52:19.569Z,79.70
2022-11-09T14:55:07.144Z,79.70
2022-11-09T14:57:55.855Z,79.70
2022-11-09T15:00:46.125Z,79.70
2022-11-09T15:03:32.785Z,79.60
2022-11-09T15:06:19.541Z,79.60
2022-11-09T15:09:08.826Z,79.60
2022-11-09T15:11:55.464Z,79.50
2022-11-09T15:14:42.029Z,79.50
2022-11-09T15:17:32.892Z,79.40
2022-11-09T15:20:29.352Z,79.40
2022-11-09T15:23:38.314Z,79.40
2022-11-09T15:26:27.485Z,79.20
2022-11-09T15:29:36.805Z,79.30
2022-11-09T15:32:24.253Z,79.30
2022-11-09T15:35:18.474Z,79.20
2022-11-09T15:38:05.458Z,79.10
2022-11-09T15:40:51.913Z,79.10
2022-11-09T15:43:38.983Z,79.10
2022-11-09T15:46:27.981Z,79.00
2022-11-09T15:49:18.091Z,79.00
2022-11-09T15:52:05.790Z,79.00
2022-11-09T15:54:52.000Z,78.90
2022-11-09T15:57:38.586Z,78.90
2022-11-09T16:00:24.950Z,78.90
2022-11-09T16:03:11.701Z,78.90
2022-11-09T16:05:59.243Z,78.80
2022-11-09T16:08:49.496Z,78.80
2022-11-09T16:11:36.198Z,78.80
2022-11-09T16:14:22.796Z,78.70
2022-11-09T16:17:09.104Z,78.70
2022-11-09T16:19:55.389Z,78.70
2022-11-09T16:22:42.041Z,78.70
2022-11-09T16:25:29.976Z,78.70
2022-11-09T16:28:16.123Z,78.60
2022-11-09T16:31:02.626Z,78.60
2022-11-09T16:33:49.182Z,78.60
2022-11-09T16:36:37.189Z,78.60
2022-11-09T16:39:23.803Z,78.60
2022-11-09T16:42:13.757Z,78.60
2022-11-09T16:45:05.627Z,78.60
2022-11-09T16:47:56.703Z,78.50
2022-11-09T16:50:43.615Z,78.60
2022-11-09T16:53:29.835Z,78.50
2022-11-09T16:56:17.030Z,78.50
2022-11-09T16:59:04.712Z,78.40
2022-11-09T17:01:52.458Z,78.40
2022-11-09T17:04:38.601Z,78.40
2022-11-09T17:07:25.148Z,78.30
2022-11-09T17:10:12.437Z,78.40
2022-11-09T17:12:58.832Z,78.40
2022-11-09T17:15:48.702Z,78.30
2022-11-09T17:18:36.140Z,78.20
2022-11-09T17:21:23.556Z,78.20
2022-11-09T17:24:09.772Z,78.20
2022-11-09T17:26:56.439Z,78.20
2022-11-09T17:29:42.934Z,78.30
2022-11-09T17:32:30.522Z,78.50
2022-11-09T17:35:17.082Z,78.60
2022-11-09T17:38:03.616Z,78.60
2022-11-09T17:40:50.161Z,78.60
2022-11-09T17:43:39.605Z,78.60
2022-11-09T17:46:26.194Z,78.60
2022-11-09T17:49:13.864Z,78.80
2022-11-09T17:52:00.240Z,78.90
2022-11-09T17:54:46.939Z,79.10
2022-11-09T17:57:33.816Z,79.00
2022-11-09T18:00:21.035Z,78.90
2022-11-09T18:03:07.609Z,78.70
2022-11-09T18:05:55.165Z,78.70
2022-11-09T18:08:42.228Z,78.70
2022-11-09T18:11:30.080Z,78.60
2022-11-09T18:14:16.807Z,78.70
2022-11-09T18:17:03.074Z,78.60
2022-11-09T18:19:49.645Z,78.60
2022-11-09T18:22:37.792Z,78.70
2022-11-09T18:25:24.303Z,78.70
2022-11-09T18:28:12.743Z,78.70
2022-11-09T18:31:03.406Z,78.80
2022-11-09T18:33:50.651Z,78.80
2022-11-09T18:36:36.834Z,78.70
2022-11-09T18:39:26.228Z,78.90
2022-11-09T18:42:12.869Z,78.80
2022-11-09T18:44:59.621Z,78.90
2022-11-09T18:47:48.655Z,78.90
2022-11-09T18:50:35.106Z,78.80
2022-11-09T18:53:21.950Z,78.80
2022-11-09T18:56:18.095Z,78.70
2022-11-09T18:59:04.435Z,78.80
2022-11-09T19:01:50.885Z,78.80
2022-11-09T19:04:37.516Z,78.80
2022-11-09T19:07:23.932Z,78.80
2022-11-09T19:10:10.811Z,78.90
2022-11-09T19:12:58.331Z,78.90
2022-11-09T19:15:46.391Z,78.90
2022-11-09T19:18:33.183Z,79.00
2022-11-09T19:21:35.799Z,79.40
2022-11-09T19:24:23.897Z,79.00
2022-11-09T19:27:10.500Z,79.80
2022-11-09T19:29:58.233Z,79.00
2022-11-09T19:32:44.725Z,79.00
2022-11-09T19:35:34.057Z,79.10
2022-11-09T19:38:21.069Z,79.10
2022-11-09T19:41:07.947Z,79.10
2022-11-09T19:43:56.583Z,79.10
2022-11-09T19:46:45.058Z,79.10
2022-11-09T19:49:31.189Z,79.10
2022-11-09T19:52:17.686Z,79.10
2022-11-09T19:55:04.312Z,79.10
2022-11-09T19:57:50.742Z,79.10
2022-11-09T20:00:37.200Z,79.10
2022-11-09T20:03:25.245Z,79.20
2022-11-09T20:06:11.563Z,79.10
2022-11-09T20:08:59.999Z,79.10
2022-11-09T20:12:03.959Z,79.20
2022-11-09T20:14:50.496Z,79.10
2022-11-09T20:17:36.795Z,79.20
2022-11-09T20:20:24.849Z,79.20
2022-11-09T20:23:11.437Z,79.10
2022-11-09T20:26:04.727Z,79.10
2022-11-09T20:28:52.927Z,79.10
2022-11-09T20:31:40.153Z,79.10
2022-11-09T20:34:29.480Z,79.10
2022-11-09T20:37:17.728Z,79.10
2022-11-09T20:40:07.815Z,79.10
2022-11-09T20:42:53.943Z,79.10
2022-11-09T20:45:40.116Z,79.10
2022-11-09T20:48:52.194Z,79.00
2022-11-09T20:51:33.295Z,79.00
2022-11-09T20:54:20.844Z,79.10
2022-11-09T20:57:07.421Z,79.00
2022-11-09T20:59:53.666Z,79.10
2022-11-09T21:02:40.269Z,78.90
2022-11-09T21:05:26.613Z,78.90
2022-11-09T21:08:13.073Z,78.80
2022-11-09T21:11:02.724Z,78.80
2022-11-09T21:13:50.608Z,78.70
2022-11-09T21:16:36.802Z,78.70
2022-11-09T21:19:23.209Z,78.70
2022-11-09T21:22:09.867Z,78.60
2022-11-09T21:25:13.541Z,78.60
2022-11-09T21:28:19.021Z,78.60
2022-11-09T21:31:05.935Z,78.60
2022-11-09T21:33:53.581Z,78.60
2022-11-09T21:36:42.366Z,78.60
2022-11-09T21:39:28.943Z,79.40
2022-11-09T21:42:15.229Z,78.60
2022-11-09T21:45:02.771Z,78.60
2022-11-09T21:47:49.295Z,78.60
2022-11-09T21:50:35.928Z,78.60
2022-11-09T21:53:22.435Z,78.50
2022-11-09T21:56:09.481Z,78.50
2022-11-09T21:58:55.968Z,78.60
2022-11-09T22:01:44.191Z,78.50
2022-11-09T22:04:30.476Z,78.50
2022-11-09T22:07:16.980Z,78.50
2022-11-09T22:10:10.549Z,78.40
2022-11-09T22:13:15.142Z,78.60
2022-11-09T22:16:07.419Z,78.50
2022-11-09T22:19:13.239Z,78.50
2022-11-09T22:21:59.828Z,78.50
2022-11-09T22:24:46.539Z,78.40
2022-11-09T22:27:33.054Z,78.50
2022-11-09T22:30:19.785Z,78.30
2022-11-09T22:33:05.992Z,78.30
2022-11-09T22:35:57.596Z,79.10
2022-11-09T22:38:43.827Z,78.40
2022-11-09T22:41:30.338Z,78.30
2022-11-09T22:44:16.837Z,78.30
2022-11-09T22:47:03.288Z,78.30
2022-11-09T22:49:49.521Z,78.30
2022-11-09T22:52:37.285Z,78.30
2022-11-09T22:55:24.176Z,78.30
2022-11-09T22:58:10.836Z,78.30
2022-11-09T23:01:05.607Z,78.30
2022-11-09T23:03:51.752Z,78.40
2022-11-09T23:06:38.372Z,78.40
2022-11-09T23:09:26.109Z,78.30
2022-11-09T23:12:12.523Z,78.30
2022-11-09T23:15:12.961Z,78.30
2022-11-09T23:18:17.726Z,78.30
2022-11-09T23:21:04.344Z,78.30
2022-11-09T23:23:51.560Z,78.30
2022-11-09T23:26:38.950Z,78.30
2022-11-09T23:29:25.472Z,78.30
2022-11-09T23:32:11.916Z,78.30
2022-11-09T23:34:58.213Z,78.30
2022-11-09T23:37:44.611Z,78.20
2022-11-09T23:40:33.196Z,78.30
2022-11-09T23:43:21.640Z,78.30
2022-11-09T23:46:11.224Z,78.10
2022-11-09T23:48:57.710Z,78.20
2022-11-09T23:51:43.826Z,78.20
2022-11-09T23:54:30.287Z,78.20
2022-11-09T23:57:16.843Z,78.20
